createdAt,value
2022-08-31T00:00:30.492Z,7.15
2022-08-31T00:05:35.112Z,4.05
2022-08-31T00:10:43.287Z,5.88
2022-08-31T00:15:48.397Z,6.30
2022-08-31T00:20:56.699Z,5.47
2022-08-31T00:25:59.991Z,5.15
2022-08-31T00:31:03.379Z,7.85
2022-08-31T00:36:10.680Z,6.75
2022-08-31T00:41:13.912Z,10.27
2022-08-31T00:46:21.794Z,7.35
2022-08-31T00:51:27.687Z,11.18
2022-08-31T00:56:31.518Z,7.80
2022-08-31T01:01:34.979Z,9.90
2022-08-31T01:06:40.818Z,8.27
2022-08-31T01:11:44.451Z,8.52
2022-08-31T01:16:52.427Z,7.20
2022-08-31T01:22:04.068Z,9.93
2022-08-31T01:27:09.179Z,13.60
2022-08-31T01:32:13.040Z,8.02
2022-08-31T01:37:16.549Z,11.68
2022-08-31T01:42:21.654Z,9.48
2022-08-31T01:47:25.474Z,6.85
2022-08-31T01:52:30.211Z,5.88
2022-08-31T01:57:35.013Z,5.70
2022-08-31T02:02:38.440Z,8.90
2022-08-31T02:07:41.961Z,6.82
2022-08-31T02:12:46.736Z,6.35
2022-08-31T02:17:52.674Z,9.52
2022-08-31T02:22:56.199Z,7.43
2022-08-31T02:28:01.355Z,8.77
2022-08-31T02:33:08.108Z,12.52
2022-08-31T02:38:12.257Z,8.60
2022-08-31T02:43:24.635Z,6.65
2022-08-31T02:48:28.559Z,10.40
2022-08-31T02:53:31.906Z,9.40
2022-08-31T02:58:37.055Z,8.70
2022-08-31T03:03:40.308Z,8.80
2022-08-31T03:08:47.607Z,13.82
2022-08-31T03:13:56.449Z,8.82
2022-08-31T03:19:01.695Z,12.45
2022-08-31T03:24:05.381Z,8.32
2022-08-31T03:29:10.085Z,12.65
2022-08-31T03:34:16.848Z,7.82
2022-08-31T03:39:21.051Z,10.85
2022-08-31T03:44:25.648Z,8.45
2022-08-31T03:49:28.905Z,16.45
2022-08-31T03:54:32.337Z,9.60
2022-08-31T03:59:37.533Z,10.43
2022-08-31T04:04:45.715Z,14.02
2022-08-31T04:09:50.252Z,9.43
2022-08-31T04:14:55.522Z,9.35
2022-08-31T04:19:58.703Z,9.40
2022-08-31T04:25:02.050Z,9.68
2022-08-31T04:30:09.239Z,8.55
2022-08-31T04:35:12.420Z,9.80
2022-08-31T04:40:20.420Z,10.25
2022-08-31T04:45:30.987Z,7.97
2022-08-31T04:50:34.238Z,14.05
2022-08-31T04:55:41.218Z,8.80
2022-08-31T05:00:45.867Z,10.93
2022-08-31T05:05:50.887Z,8.85
2022-08-31T05:10:54.207Z,9.80
2022-08-31T05:15:59.162Z,10.23
2022-08-31T05:21:10.644Z,7.93
2022-08-31T05:26:21.536Z,10.38
2022-08-31T05:31:31.024Z,8.65
2022-08-31T05:36:35.033Z,8.45
2022-08-31T05:41:38.516Z,7.80
2022-08-31T05:46:43.527Z,10.60
2022-08-31T05:51:46.867Z,7.30
2022-08-31T05:56:50.267Z,6.50
2022-08-31T06:01:55.477Z,7.30
2022-08-31T06:06:58.782Z,9.05
2022-08-31T06:12:01.981Z,6.90
2022-08-31T06:17:07.216Z,8.25
2022-08-31T06:22:10.901Z,7.40
2022-08-31T06:27:14.208Z,7.15
2022-08-31T06:32:20.074Z,5.43
2022-08-31T06:37:23.284Z,6.13
2022-08-31T06:42:26.689Z,8.18
2022-08-31T06:47:31.972Z,6.28
2022-08-31T06:52:38.836Z,7.82
2022-08-31T06:57:42.409Z,7.15
2022-08-31T07:02:53.192Z,7.15
2022-08-31T07:08:01.387Z,8.05
2022-08-31T07:13:04.599Z,6.78
2022-08-31T07:18:10.544Z,6.95
2022-08-31T07:23:13.851Z,5.88
2022-08-31T07:28:17.067Z,9.55
2022-08-31T07:33:22.773Z,5.57
2022-08-31T07:38:43.167Z,7.10
2022-08-31T07:43:46.415Z,5.03
2022-08-31T07:48:52.541Z,7.05
2022-08-31T07:53:57.085Z,5.53
2022-08-31T07:59:00.512Z,5.65
2022-08-31T08:04:06.361Z,5.18
2022-08-31T08:09:24.017Z,7.75
2022-08-31T08:14:29.772Z,6.30
2022-08-31T08:19:35.601Z,6.70
2022-08-31T08:24:40.161Z,6.53
2022-08-31T08:29:50.882Z,7.85
2022-08-31T08:34:55.586Z,7.15
2022-08-31T08:39:59.808Z,6.60
2022-08-31T08:45:04.377Z,4.75
2022-08-31T08:50:10.667Z,5.80
2022-08-31T08:55:17.059Z,6.70
2022-08-31T09:00:24.934Z,5.10
2022-08-31T09:05:53.116Z,6.32
2022-08-31T09:11:06.445Z,4.18
2022-08-31T09:16:24.832Z,3.97
2022-08-31T09:21:34.557Z,5.35
2022-08-31T09:26:54.400Z,5.28
2022-08-31T09:32:06.432Z,4.38
2022-08-31T09:37:17.372Z,4.22
2022-08-31T09:42:31.529Z,7.22
2022-08-31T09:47:48.713Z,5.18
2022-08-31T09:53:24.058Z,3.95
2022-08-31T09:58:30.912Z,5.22
2022-08-31T10:03:36.050Z,4.53
2022-08-31T10:08:46.331Z,7.07
2022-08-31T10:13:58.813Z,7.38
2022-08-31T10:19:06.429Z,4.70
2022-08-31T10:24:28.435Z,5.72
2022-08-31T10:29:39.957Z,7.22
2022-08-31T10:34:57.012Z,6.25
2022-08-31T10:40:07.824Z,6.72
2022-08-31T10:45:18.682Z,7.45
2022-08-31T10:50:29.495Z,7.80
2022-08-31T10:55:41.548Z,8.00
2022-08-31T11:00:52.009Z,6.97
2022-08-31T11:06:00.701Z,6.88
2022-08-31T11:11:09.174Z,9.15
2022-08-31T11:16:32.849Z,10.30
2022-08-31T11:22:37.605Z,6.57
2022-08-31T11:27:45.541Z,10.65
2022-08-31T11:32:54.171Z,6.53
2022-08-31T11:38:00.273Z,6.82
2022-08-31T11:43:06.362Z,8.75
2022-08-31T11:48:30.178Z,8.70
2022-08-31T11:53:37.551Z,6.50
2022-08-31T11:58:44.905Z,7.10
2022-08-31T12:03:55.780Z,7.60
2022-08-31T12:09:21.028Z,9.75
2022-08-31T12:14:33.286Z,9.70
2022-08-31T12:20:02.135Z,8.60
2022-08-31T12:25:17.791Z,10.70
2022-08-31T12:35:56.463Z,14.32
2022-08-31T12:40:59.789Z,11.18
2022-08-31T12:46:36.015Z,9.70
2022-08-31T12:51:45.704Z,10.02
2022-08-31T12:56:57.972Z,12.80
2022-08-31T13:02:02.862Z,13.00
2022-08-31T13:07:20.271Z,10.73
2022-08-31T13:12:24.980Z,7.68
2022-08-31T13:17:35.174Z,10.18
2022-08-31T13:22:41.850Z,8.07
2022-08-31T13:27:50.331Z,6.78
2022-08-31T13:32:55.553Z,10.27
2022-08-31T13:38:05.392Z,9.10
2022-08-31T13:43:10.848Z,14.52
2022-08-31T13:48:25.176Z,16.60
2022-08-31T13:53:40.684Z,11.40
2022-08-31T13:58:44.315Z,7.95
2022-08-31T14:03:58.278Z,11.00
2022-08-31T14:09:16.619Z,11.82
2022-08-31T14:14:35.649Z,13.00
2022-08-31T14:19:40.843Z,10.00
2022-08-31T14:24:45.077Z,11.20
2022-08-31T14:29:52.339Z,12.23
2022-08-31T14:34:57.971Z,10.32
2022-08-31T14:40:07.553Z,9.73
2022-08-31T14:45:19.049Z,10.05
2022-08-31T14:50:27.228Z,11.10
2022-08-31T14:55:31.079Z,10.95
2022-08-31T15:00:38.047Z,9.93
2022-08-31T15:05:44.144Z,14.32
2022-08-31T15:10:47.573Z,12.63
2022-08-31T15:15:51.501Z,9.77
2022-08-31T15:20:56.307Z,9.95
2022-08-31T15:26:06.395Z,7.00
2022-08-31T15:31:13.461Z,9.02
2022-08-31T15:36:23.931Z,12.45
2022-08-31T15:41:29.558Z,11.43
2022-08-31T15:46:50.429Z,14.35
2022-08-31T15:51:55.464Z,8.13
2022-08-31T15:56:58.909Z,11.52
2022-08-31T16:02:03.056Z,7.72
2022-08-31T16:07:09.703Z,11.70
2022-08-31T16:12:13.859Z,8.18
2022-08-31T16:17:19.239Z,10.60
2022-08-31T16:22:28.303Z,11.88
2022-08-31T16:27:35.270Z,9.57
2022-08-31T16:32:38.618Z,7.07
2022-08-31T16:37:43.316Z,8.82
2022-08-31T16:42:46.644Z,7.05
2022-08-31T16:48:09.955Z,6.25
2022-08-31T16:53:16.438Z,6.50
2022-08-31T16:58:34.854Z,3.90
2022-08-31T17:03:48.193Z,5.65
2022-08-31T17:08:56.638Z,3.97
2022-08-31T17:14:01.831Z,3.63
2022-08-31T17:19:10.840Z,4.93
2022-08-31T17:24:16.287Z,2.97
2022-08-31T17:29:23.672Z,2.95
2022-08-31T17:34:29.136Z,4.05
2022-08-31T17:39:33.963Z,3.53
2022-08-31T17:44:37.462Z,4.38
2022-08-31T17:49:46.306Z,4.60
2022-08-31T17:54:52.405Z,5.63
2022-08-31T17:59:56.041Z,6.30
2022-08-31T18:04:59.628Z,3.28
2022-08-31T18:10:04.763Z,4.63
2022-08-31T18:15:09.129Z,3.95
2022-08-31T18:20:12.958Z,3.70
2022-08-31T18:25:19.692Z,8.77
2022-08-31T18:30:23.120Z,8.00
2022-08-31T18:35:29.588Z,9.25
2022-08-31T18:40:56.620Z,3.83
2022-08-31T18:46:00.416Z,7.13
2022-08-31T18:51:03.934Z,7.60
2022-08-31T18:56:20.155Z,5.45
2022-08-31T19:01:23.801Z,6.63
2022-08-31T19:06:29.448Z,4.97
2022-08-31T19:12:02.308Z,5.43
2022-08-31T19:17:06.339Z,6.85
2022-08-31T19:22:09.741Z,5.90
2022-08-31T19:27:15.110Z,9.18
2022-08-31T19:32:18.665Z,5.13
2022-08-31T19:37:22.727Z,6.78
2022-08-31T19:47:52.029Z,6.38
2022-08-31T19:52:55.367Z,6.80
2022-08-31T19:58:00.071Z,6.78
2022-08-31T20:03:04.516Z,7.30
2022-08-31T20:08:07.830Z,9.00
2022-08-31T20:13:13.574Z,8.80
2022-08-31T20:18:18.092Z,6.45
2022-08-31T20:23:28.718Z,7.30
2022-08-31T20:28:36.596Z,9.15
2022-08-31T20:33:43.289Z,6.53
2022-08-31T20:38:47.112Z,8.95
2022-08-31T20:43:51.859Z,13.65
2022-08-31T20:49:12.761Z,7.47
2022-08-31T20:54:19.660Z,8.68
2022-08-31T20:59:25.206Z,12.55
2022-08-31T21:04:29.903Z,7.53
2022-08-31T21:09:33.216Z,7.85
2022-08-31T21:14:38.730Z,10.32
2022-08-31T21:19:42.238Z,10.10
2022-08-31T21:24:46.614Z,13.68
2022-08-31T21:29:54.533Z,10.93
2022-08-31T21:34:58.295Z,12.23
2022-08-31T21:40:01.770Z,14.52
2022-08-31T21:45:07.575Z,16.63
2022-08-31T21:50:11.084Z,13.65
2022-08-31T21:55:18.081Z,10.45
2022-08-31T22:00:29.540Z,12.57
2022-08-31T22:05:33.005Z,14.00
2022-08-31T22:10:41.028Z,13.68
2022-08-31T22:15:48.152Z,20.05
2022-08-31T22:20:51.479Z,13.32
2022-08-31T22:25:56.699Z,14.27
2022-08-31T22:31:02.361Z,16.38
2022-08-31T22:36:06.341Z,14.60
2022-08-31T22:41:10.356Z,13.48
2022-08-31T22:46:17.372Z,15.85
2022-08-31T22:51:22.771Z,12.82
2022-08-31T22:56:28.667Z,17.05
2022-08-31T23:01:42.013Z,14.10
2022-08-31T23:06:45.365Z,11.95
2022-08-31T23:11:51.677Z,10.18
2022-08-31T23:16:59.379Z,11.90
2022-08-31T23:22:07.631Z,11.48
2022-08-31T23:27:12.014Z,10.90
2022-08-31T23:32:21.021Z,10.77
2022-08-31T23:37:27.612Z,12.27
2022-08-31T23:42:31.080Z,12.05
2022-08-31T23:47:35.909Z,15.43
2022-08-31T23:52:41.673Z,16.45
2022-08-31T23:57:47.611Z,12.07
